Time;durP1;ratioP1;P1;durP2;ratioP2;P2;SDS_P1;SDS_P2;PMS_P1;PMS_P2;Temp;Humidity;BMP_temperature;BMP_pressure;BME280_temperature;BME280_humidity;BME280_pressure;Samples;Min_cycle;Max_cycle;Signal;HPM_P1;HPM_P2
2021/01/03 00:01:12;;;;;;;6.07;3.63;;;3.60;99.90;;;;;;5084466;28;20202;-80
2021/01/03 00:03:39;;;;;;;7.63;5.18;;;3.50;99.90;;;;;;5063553;28;20290;-81
2021/01/03 00:06:06;;;;;;;12.68;8.07;;;3.40;99.90;;;;;;5064431;28;20255;-82
2021/01/03 00:08:33;;;;;;;10.75;7.05;;;3.40;99.90;;;;;;5081637;28;20194;-81
2021/01/03 00:10:59;;;;;;;8.77;5.07;;;3.40;99.90;;;;;;5082693;28;20600;-82
2021/01/03 00:13:26;;;;;;;7.50;5.25;;;3.60;99.90;;;;;;5071030;28;20209;-82
2021/01/03 00:15:53;;;;;;;10.68;6.70;;;3.70;99.90;;;;;;5070879;28;20225;-80
2021/01/03 00:18:20;;;;;;;8.43;5.53;;;3.60;99.90;;;;;;5059262;28;20266;-82
2021/01/03 00:20:46;;;;;;;11.23;6.95;;;3.50;99.90;;;;;;5040565;28;20215;-82
2021/01/03 00:23:13;;;;;;;8.88;5.90;;;3.40;99.90;;;;;;5070886;28;20202;-82
2021/01/03 00:25:39;;;;;;;11.00;6.95;;;3.40;99.90;;;;;;5079093;28;20623;-82
2021/01/03 00:28:06;;;;;;;11.38;5.63;;;3.40;99.90;;;;;;5078724;28;20206;-82
2021/01/03 00:30:32;;;;;;;10.23;5.55;;;3.70;99.90;;;;;;5078593;28;20209;-81
2021/01/03 00:33:00;;;;;;;8.15;5.80;;;3.50;99.90;;;;;;5064802;28;20214;-81
2021/01/03 00:35:31;;;;;;;11.13;7.50;;;3.40;99.90;;;;;;5056739;28;20652;-82
2021/01/03 00:37:59;;;;;;;8.00;4.88;;;3.60;99.90;;;;;;5069418;28;20748;-80
2021/01/03 00:40:26;;;;;;;11.32;7.03;;;3.60;99.90;;;;;;5077794;28;20331;-81
2021/01/03 00:42:52;;;;;;;11.73;6.22;;;3.50;99.90;;;;;;5061117;28;20202;-82
2021/01/03 00:45:19;;;;;;;10.48;6.50;;;3.70;99.90;;;;;;5057485;28;20651;-80
2021/01/03 00:47:46;;;;;;;12.93;6.97;;;3.60;99.90;;;;;;5057580;28;20203;-81
2021/01/03 00:50:14;;;;;;;8.30;5.20;;;3.50;99.90;;;;;;5057534;28;20210;-80
2021/01/03 00:52:41;;;;;;;5.90;3.80;;;3.60;99.90;;;;;;5047831;28;20238;-81
2021/01/03 00:55:09;;;;;;;6.85;3.80;;;3.50;99.90;;;;;;5037662;28;20223;-80
2021/01/03 00:57:36;;;;;;;8.05;4.20;;;3.30;99.90;;;;;;5051509;28;20214;-80
2021/01/03 01:00:06;;;;;;;10.43;5.75;;;3.40;99.90;;;;;;5057989;28;20202;-80
2021/01/03 01:02:33;;;;;;;9.90;5.50;;;3.40;99.90;;;;;;5072854;28;20538;-82
2021/01/03 01:04:59;;;;;;;9.80;6.25;;;3.40;99.90;;;;;;5063350;28;20637;-82
2021/01/03 01:07:29;;;;;;;10.27;6.93;;;3.50;99.90;;;;;;5069835;28;20221;-83
2021/01/03 01:09:56;;;;;;;9.15;6.18;;;3.50;99.90;;;;;;5055593;28;20207;-83
2021/01/03 01:12:23;;;;;;;11.20;6.95;;;3.40;99.90;;;;;;5059310;28;20675;-81
2021/01/03 01:14:49;;;;;;;7.22;4.35;;;3.40;99.90;;;;;;5057628;28;20225;-81
2021/01/03 01:17:16;;;;;;;12.10;7.47;;;3.50;99.90;;;;;;5061150;28;20208;-81
2021/01/03 01:19:43;;;;;;;10.48;6.90;;;3.40;99.90;;;;;;5075275;28;20212;-81
2021/01/03 01:22:09;;;;;;;11.52;7.10;;;3.60;99.90;;;;;;5072392;28;20198;-80
2021/01/03 01:24:37;;;;;;;12.85;6.80;;;3.50;99.90;;;;;;5043632;28;20230;-81
2021/01/03 01:27:04;;;;;;;12.23;7.18;;;3.40;99.90;;;;;;5058194;28;20206;-80
2021/01/03 01:29:30;;;;;;;9.63;6.32;;;3.50;99.90;;;;;;5057161;28;20344;-81
2021/01/03 01:31:57;;;;;;;9.35;6.43;;;3.60;99.90;;;;;;5061819;28;20198;-81
2021/01/03 01:34:23;;;;;;;10.80;6.50;;;3.80;99.90;;;;;;5076247;28;20617;-82
2021/01/03 01:36:50;;;;;;;10.18;7.13;;;3.60;99.90;;;;;;5066386;28;20202;-81
2021/01/03 01:39:16;;;;;;;12.95;7.60;;;3.70;99.90;;;;;;5071498;28;20209;-81
2021/01/03 01:41:44;;;;;;;10.13;5.95;;;3.80;99.90;;;;;;5063075;28;20202;-81
2021/01/03 01:44:10;;;;;;;12.40;7.70;;;3.90;99.90;;;;;;5061390;28;20221;-82
2021/01/03 01:46:43;;;;;;;13.50;8.30;;;3.70;99.90;;;;;;5058551;28;20213;-81
2021/01/03 01:49:13;;;;;;;12.90;7.75;;;3.80;99.90;;;;;;5072427;28;20190;-80
2021/01/03 01:51:44;;;;;;;12.07;7.72;;;3.60;99.90;;;;;;5064036;28;20194;-81
2021/01/03 01:54:16;;;;;;;11.25;8.05;;;3.50;99.90;;;;;;5062036;28;20226;-81
2021/01/03 01:56:50;;;;;;;11.48;7.13;;;3.60;99.90;;;;;;5071804;28;20210;-77
2021/01/03 01:59:27;;;;;;;12.35;8.10;;;3.60;99.90;;;;;;5063536;28;20212;-79
2021/01/03 02:02:00;;;;;;;11.65;7.72;;;3.80;99.90;;;;;;5057139;28;20653;-81
2021/01/03 02:04:32;;;;;;;12.85;7.65;;;3.90;99.90;;;;;;5055471;28;20231;-80
2021/01/03 02:07:05;;;;;;;10.30;7.15;;;3.80;99.90;;;;;;5042311;28;20196;-81
2021/01/03 02:09:41;;;;;;;11.23;6.93;;;3.80;99.90;;;;;;5050803;28;20226;-79
2021/01/03 02:12:15;;;;;;;7.43;5.35;;;3.80;99.90;;;;;;5061095;28;20206;-81
2021/01/03 02:14:42;;;;;;;10.18;6.47;;;3.80;99.90;;;;;;5066162;28;20224;-81
2021/01/03 02:17:09;;;;;;;13.32;7.53;;;3.90;99.90;;;;;;5062751;28;20604;-82
2021/01/03 02:19:36;;;;;;;12.35;7.35;;;3.60;99.90;;;;;;5063076;28;20197;-81
2021/01/03 02:22:11;;;;;;;11.50;8.38;;;3.70;99.90;;;;;;5068079;28;20210;-82
2021/01/03 02:24:43;;;;;;;11.68;8.05;;;3.50;99.90;;;;;;5064645;28;20225;-80
2021/01/03 02:27:19;;;;;;;12.65;8.43;;;3.60;99.90;;;;;;5082002;28;20216;-79
2021/01/03 02:29:48;;;;;;;12.73;7.63;;;3.40;99.90;;;;;;5076298;28;20222;-80
2021/01/03 02:32:16;;;;;;;13.40;8.98;;;3.40;99.90;;;;;;5062218;28;20214;-81
2021/01/03 02:34:48;;;;;;;13.82;10.02;;;3.40;99.90;;;;;;5065390;28;20226;-80
2021/01/03 02:37:19;;;;;;;13.80;9.07;;;3.30;99.90;;;;;;5062381;28;20198;-80
2021/01/03 02:39:51;;;;;;;13.13;9.45;;;3.10;99.90;;;;;;5041908;28;20210;-81
2021/01/03 02:42:22;;;;;;;12.73;7.60;;;3.00;99.90;;;;;;5043329;28;20568;-81
2021/01/03 02:44:49;;;;;;;17.02;8.77;;;3.00;99.90;;;;;;5082070;28;20229;-81
2021/01/03 02:47:17;;;;;;;15.25;10.60;;;3.10;99.90;;;;;;5084239;28;20202;-81
2021/01/03 02:49:43;;;;;;;23.83;11.05;;;3.10;99.90;;;;;;5070108;28;20193;-81
2021/01/03 02:52:15;;;;;;;15.48;10.48;;;3.00;99.90;;;;;;5075108;28;20627;-80
2021/01/03 02:54:41;;;;;;;15.95;11.07;;;3.20;99.90;;;;;;5087474;28;20304;-80
2021/01/03 02:57:08;;;;;;;13.55;9.05;;;2.90;99.90;;;;;;5090549;28;20527;-80
2021/01/03 02:59:35;;;;;;;16.15;10.85;;;2.90;99.90;;;;;;5077545;28;20731;-78
2021/01/03 03:02:02;;;;;;;15.32;8.75;;;2.80;99.90;;;;;;5076148;28;20198;-80
2021/01/03 03:04:28;;;;;;;16.83;10.23;;;2.90;99.90;;;;;;5054416;28;20227;-80
2021/01/03 03:06:55;;;;;;;16.27;11.48;;;2.80;99.90;;;;;;5068083;28;20210;-80
2021/01/03 03:09:22;;;;;;;13.70;7.80;;;3.00;99.90;;;;;;5063516;28;20209;-80
2021/01/03 03:11:48;;;;;;;17.13;11.10;;;3.00;99.90;;;;;;5074318;28;20202;-80
2021/01/03 03:14:15;;;;;;;18.38;11.13;;;2.70;99.90;;;;;;5083504;28;20218;-81
2021/01/03 03:16:42;;;;;;;16.10;10.88;;;2.70;99.90;;;;;;5067771;28;20214;-81
2021/01/03 03:19:09;;;;;;;18.80;10.88;;;2.70;99.90;;;;;;5071052;28;20210;-79
2021/01/03 03:21:36;;;;;;;19.08;11.57;;;2.80;99.90;;;;;;5090249;28;20212;-81
2021/01/03 03:24:03;;;;;;;15.32;10.27;;;3.00;99.90;;;;;;5077632;28;20226;-80
2021/01/03 03:26:29;;;;;;;14.27;8.20;;;2.90;99.90;;;;;;5089002;28;20210;-81
2021/01/03 03:28:56;;;;;;;19.45;11.13;;;2.80;99.90;;;;;;5084998;28;20251;-81
2021/01/03 03:31:27;;;;;;;16.02;10.07;;;2.80;99.90;;;;;;5082178;28;20579;-80
2021/01/03 03:33:54;;;;;;;18.40;11.15;;;2.80;99.90;;;;;;5084206;28;20222;-81
2021/01/03 03:36:21;;;;;;;20.65;12.25;;;2.80;99.90;;;;;;5081716;28;20228;-81
2021/01/03 03:38:48;;;;;;;16.20;10.20;;;2.70;99.90;;;;;;5063068;28;20683;-81
2021/01/03 03:41:20;;;;;;;19.60;12.85;;;2.70;99.90;;;;;;5064036;28;20732;-80
2021/01/03 03:43:47;;;;;;;18.52;11.95;;;2.70;99.90;;;;;;5083483;28;20248;-80
2021/01/03 03:46:14;;;;;;;20.23;12.40;;;2.60;99.90;;;;;;5062138;28;20288;-80
2021/01/03 03:48:40;;;;;;;18.13;12.13;;;2.70;99.90;;;;;;5075824;28;20206;-81
2021/01/03 03:51:08;;;;;;;18.27;11.63;;;2.70;99.90;;;;;;5073005;28;20699;-82
2021/01/03 03:53:34;;;;;;;21.52;11.88;;;2.70;99.90;;;;;;5066433;28;20245;-82
2021/01/03 03:56:02;;;;;;;19.38;13.10;;;2.90;99.90;;;;;;5064373;28;20213;-81
2021/01/03 03:58:28;;;;;;;19.27;12.82;;;2.80;99.90;;;;;;5082030;28;20235;-80
2021/01/03 04:00:55;;;;;;;19.70;12.13;;;2.90;99.90;;;;;;5067813;28;20213;-80
2021/01/03 04:03:21;;;;;;;18.80;13.60;;;2.80;99.90;;;;;;5079504;28;20213;-80
2021/01/03 04:05:48;;;;;;;18.77;12.82;;;2.90;99.90;;;;;;5083801;28;20300;-82
2021/01/03 04:08:16;;;;;;;21.23;12.63;;;2.80;99.90;;;;;;5068926;28;20233;-81
2021/01/03 04:10:42;;;;;;;16.10;11.70;;;3.10;99.90;;;;;;5064318;28;20214;-81
2021/01/03 04:13:09;;;;;;;17.90;11.65;;;3.00;99.90;;;;;;5081519;28;20204;-80
2021/01/03 04:15:37;;;;;;;21.48;13.48;;;2.90;99.90;;;;;;5055800;28;20227;-81
2021/01/03 04:18:04;;;;;;;20.60;10.18;;;2.70;99.90;;;;;;5066361;28;20233;-81
2021/01/03 04:20:30;;;;;;;16.55;11.73;;;3.00;99.90;;;;;;5074239;28;20219;-80
2021/01/03 04:22:57;;;;;;;18.00;12.43;;;3.10;99.90;;;;;;5086798;28;20259;-80
2021/01/03 04:25:25;;;;;;;17.83;12.73;;;3.10;99.90;;;;;;5080972;22;20226;-85
2021/01/03 04:27:53;;;;;;;20.05;12.20;;;3.20;99.90;;;;;;5056895;28;20203;-85
2021/01/03 04:30:21;;;;;;;16.90;10.77;;;3.10;99.90;;;;;;5075353;28;20202;-85
2021/01/03 04:32:48;;;;;;;17.08;12.13;;;3.20;99.90;;;;;;5084899;28;20286;-85
2021/01/03 04:35:15;;;;;;;17.70;12.00;;;3.40;99.90;;;;;;5078227;28;20271;-84
2021/01/03 04:37:42;;;;;;;19.08;11.57;;;3.20;99.90;;;;;;5095457;28;20275;-84
2021/01/03 04:40:16;;;;;;;19.65;12.70;;;3.00;99.90;;;;;;5090057;28;20376;-85
2021/01/03 04:42:45;;;;;;;17.10;12.60;;;3.10;99.90;;;;;;5053066;28;20206;-83
2021/01/03 04:45:18;;;;;;;18.42;11.75;;;3.00;99.90;;;;;;5048931;28;20253;-84
2021/01/03 04:47:53;;;;;;;18.70;12.27;;;3.10;99.90;;;;;;5076784;28;20210;-85
2021/01/03 04:50:39;;;;;;;18.75;12.65;;;2.90;99.90;;;;;;5036741;28;20313;-84
2021/01/03 04:53:16;;;;;;;19.67;12.13;;;3.10;99.90;;;;;;5037989;28;20272;-84
2021/01/03 04:55:47;;;;;;;17.85;11.85;;;2.90;99.90;;;;;;5071661;28;20579;-84
2021/01/03 04:58:29;;;;;;;19.08;11.73;;;2.80;99.90;;;;;;5038898;28;20271;-84
2021/01/03 05:01:17;;;;;;;18.85;11.40;;;3.00;99.90;;;;;;5070974;28;20202;-84
2021/01/03 05:04:07;;;;;;;16.95;10.70;;;2.90;99.90;;;;;;5060894;28;20198;-84
2021/01/03 05:06:35;;;;;;;22.75;14.10;;;2.80;99.90;;;;;;5076357;28;20611;-85
2021/01/03 05:09:05;;;;;;;12.82;8.85;;;3.00;99.90;;;;;;5066591;28;20207;-85
2021/01/03 05:11:42;;;;;;;19.05;11.38;;;2.60;99.90;;;;;;5057681;28;20221;-84
2021/01/03 05:14:17;;;;;;;21.70;10.98;;;2.60;99.90;;;;;;5057605;28;20218;-84
2021/01/03 05:16:44;;;;;;;17.95;12.32;;;2.80;99.90;;;;;;5061417;28;20339;-84
2021/01/03 05:19:10;;;;;;;15.05;10.02;;;2.90;99.90;;;;;;5076674;28;20267;-84
2021/01/03 05:21:48;;;;;;;17.02;11.38;;;2.80;99.90;;;;;;5070771;28;20684;-84
2021/01/03 05:24:15;;;;;;;18.70;12.32;;;2.90;99.90;;;;;;5050110;28;20233;-84
2021/01/03 05:26:42;;;;;;;18.67;11.80;;;2.60;99.90;;;;;;5049753;28;20203;-84
2021/01/03 05:29:12;;;;;;;15.23;10.88;;;2.90;99.90;;;;;;5054558;28;20217;-84
2021/01/03 05:31:39;;;;;;;17.45;11.27;;;2.90;99.90;;;;;;5058066;28;20229;-84
2021/01/03 05:34:09;;;;;;;15.77;10.90;;;2.80;99.90;;;;;;5079471;28;20299;-82
2021/01/03 05:36:42;;;;;;;16.50;10.82;;;2.80;99.90;;;;;;5075453;28;20205;-85
2021/01/03 05:39:27;;;;;;;16.23;9.88;;;2.70;99.90;;;;;;5050647;28;20213;-86
2021/01/03 05:42:06;;;;;;;16.80;11.00;;;2.80;99.90;;;;;;5048318;28;20194;-86
2021/01/03 05:44:36;;;;;;;18.30;12.32;;;2.90;99.90;;;;;;5064793;28;20234;-86
2021/01/03 05:47:07;;;;;;;17.48;11.82;;;2.90;99.90;;;;;;5057895;28;20213;-85
2021/01/03 05:49:34;;;;;;;17.70;11.63;;;2.80;99.90;;;;;;5062293;28;20202;-85
2021/01/03 05:52:20;;;;;;;19.45;12.30;;;2.90;99.90;;;;;;5080043;28;20339;-85
2021/01/03 05:54:48;;;;;;;17.00;10.88;;;2.90;99.90;;;;;;5051074;28;20218;-85
2021/01/03 05:57:25;;;;;;;19.17;12.90;;;2.80;99.90;;;;;;5085996;28;20292;-83
2021/01/03 05:59:53;;;;;;;20.25;12.50;;;2.90;99.90;;;;;;5071526;28;20213;-84
2021/01/03 06:02:22;;;;;;;16.52;11.45;;;2.70;99.90;;;;;;5058172;28;20259;-84
2021/01/03 06:05:01;;;;;;;19.23;13.23;;;2.80;99.90;;;;;;5056977;28;20280;-84
2021/01/03 06:07:29;;;;;;;17.65;11.90;;;2.80;99.90;;;;;;5058672;28;20207;-84
2021/01/03 06:09:56;;;;;;;13.13;8.57;;;2.60;99.90;;;;;;5063966;28;20206;-85
2021/01/03 06:12:25;;;;;;;19.20;11.77;;;2.80;99.90;;;;;;5079972;28;20217;-84
2021/01/03 06:14:56;;;;;;;17.23;9.75;;;2.70;99.90;;;;;;5070799;28;20688;-84
2021/01/03 06:17:33;;;;;;;18.55;11.65;;;2.80;99.90;;;;;;5079385;28;20206;-83
2021/01/03 06:20:08;;;;;;;20.10;12.10;;;3.00;99.90;;;;;;5081957;28;20282;-82
2021/01/03 06:22:39;;;;;;;19.38;11.93;;;2.90;99.90;;;;;;5043447;28;20598;-79
2021/01/03 06:25:24;;;;;;;16.40;11.05;;;2.90;99.90;;;;;;5071498;28;20237;-79
2021/01/03 06:27:51;;;;;;;17.77;11.73;;;2.90;99.90;;;;;;5079765;28;20309;-79
2021/01/03 06:30:23;;;;;;;15.90;10.18;;;2.80;99.90;;;;;;5064278;28;20198;-77
2021/01/03 06:33:34;;;;;;;17.58;10.15;;;2.80;99.90;;;;;;5065164;28;20199;-78
2021/01/03 06:36:10;;;;;;;18.85;12.02;;;2.70;99.90;;;;;;5056609;28;20233;-85
2021/01/03 06:39:01;;;;;;;20.92;12.30;;;2.90;99.90;;;;;;5069867;28;20270;-85
2021/01/03 06:41:49;;;;;;;22.13;13.40;;;2.90;99.90;;;;;;5068439;28;20264;-85
2021/01/03 06:44:51;;;;;;;19.52;12.10;;;3.00;99.90;;;;;;5065509;28;20230;-85
2021/01/03 06:47:51;;;;;;;20.50;12.77;;;2.80;99.90;;;;;;5061754;28;20260;-85
2021/01/03 06:50:56;;;;;;;18.35;11.52;;;2.70;99.90;;;;;;5046392;28;20195;-85
2021/01/03 06:54:05;;;;;;;20.27;13.18;;;3.20;99.90;;;;;;5020339;28;20225;-85
2021/01/03 06:57:13;;;;;;;18.25;11.60;;;3.30;99.90;;;;;;5030195;28;20191;-85
2021/01/03 07:00:03;;;;;;;20.58;12.48;;;3.00;99.90;;;;;;5034595;28;20242;-86
2021/01/03 07:02:33;;;;;;;20.83;11.45;;;3.00;99.90;;;;;;5070460;28;20214;-85
2021/01/03 07:05:07;;;;;;;21.92;13.82;;;2.80;99.90;;;;;;5058524;28;20235;-85
2021/01/03 07:07:37;;;;;;;20.30;12.52;;;3.00;99.90;;;;;;5032741;28;20203;-85
2021/01/03 07:10:06;;;;;;;19.08;10.30;;;3.10;99.90;;;;;;5055632;28;20198;-86
2021/01/03 07:12:44;;;;;;;20.00;12.73;;;3.00;99.90;;;;;;5073266;28;20210;-85
2021/01/03 07:15:14;;;;;;;18.52;12.02;;;3.00;99.90;;;;;;5072643;28;20225;-85
2021/01/03 07:18:26;;;;;;;20.35;12.25;;;3.30;99.90;;;;;;5034070;28;20192;-85
2021/01/03 07:20:58;;;;;;;20.35;11.73;;;3.00;99.90;;;;;;5062485;28;20206;-84
2021/01/03 07:23:33;;;;;;;19.67;13.18;;;3.10;99.90;;;;;;5054710;28;20201;-85
2021/01/03 07:26:08;;;;;;;17.50;12.32;;;3.20;99.90;;;;;;5054315;28;20222;-85
2021/01/03 07:28:36;;;;;;;18.58;12.32;;;2.90;99.90;;;;;;5065865;28;20278;-85
2021/01/03 07:31:12;;;;;;;19.13;12.82;;;3.10;99.90;;;;;;5072554;28;20199;-85
2021/01/03 07:33:50;;;;;;;16.38;10.77;;;3.10;99.90;;;;;;5064155;28;20213;-85
2021/01/03 07:36:35;;;;;;;15.13;10.63;;;3.10;99.90;;;;;;5078035;28;20640;-85
2021/01/03 07:39:19;;;;;;;18.33;10.88;;;3.00;99.90;;;;;;5055924;28;20218;-85
2021/01/03 07:41:47;;;;;;;17.73;11.38;;;3.00;99.90;;;;;;5039001;28;20194;-85
2021/01/03 07:44:31;;;;;;;17.20;9.20;;;2.90;99.90;;;;;;5055414;28;20317;-85
2021/01/03 07:46:59;;;;;;;18.40;11.75;;;2.90;99.90;;;;;;5091506;28;20271;-84
2021/01/03 07:49:38;;;;;;;20.00;13.50;;;2.80;99.90;;;;;;5081863;28;20579;-85
2021/01/03 07:52:39;;;;;;;17.77;11.43;;;2.70;99.90;;;;;;5074061;28;20270;-84
2021/01/03 07:55:22;;;;;;;18.85;12.50;;;3.10;99.90;;;;;;5077243;28;20248;-84
2021/01/03 07:57:55;;;;;;;20.38;11.93;;;2.80;99.90;;;;;;5058756;28;20344;-85
2021/01/03 08:00:23;;;;;;;18.85;10.48;;;3.20;99.90;;;;;;5057362;28;20610;-85
2021/01/03 08:02:54;;;;;;;19.92;12.52;;;3.20;99.90;;;;;;5056770;28;20209;-85
2021/01/03 08:05:22;;;;;;;16.58;10.27;;;3.10;99.90;;;;;;5062944;28;20657;-85
2021/01/03 08:07:50;;;;;;;21.90;13.70;;;3.20;99.90;;;;;;5060775;28;20217;-85
2021/01/03 08:10:17;;;;;;;20.42;11.25;;;3.20;99.90;;;;;;5074407;28;20227;-85
2021/01/03 08:12:47;;;;;;;20.73;12.63;;;3.00;99.90;;;;;;5080407;28;20205;-84
2021/01/03 08:15:26;;;;;;;22.63;12.15;;;3.00;99.90;;;;;;5075641;28;20225;-84
2021/01/03 08:17:58;;;;;;;19.60;13.63;;;2.80;99.90;;;;;;5059169;28;20213;-86
2021/01/03 08:20:29;;;;;;;18.85;11.55;;;2.80;99.90;;;;;;5061037;28;20561;-85
2021/01/03 08:23:11;;;;;;;18.85;12.98;;;2.90;99.90;;;;;;5066050;28;20621;-85
2021/01/03 08:25:38;;;;;;;18.23;11.48;;;2.70;99.90;;;;;;5066235;28;20847;-86
2021/01/03 08:28:08;;;;;;;18.27;13.10;;;2.80;99.90;;;;;;5052148;28;20206;-84
2021/01/03 08:30:37;;;;;;;18.20;11.65;;;2.90;99.90;;;;;;5050408;28;20225;-85
2021/01/03 08:33:12;;;;;;;22.42;12.48;;;2.70;99.90;;;;;;5061435;28;20562;-86
2021/01/03 08:35:39;;;;;;;18.05;11.57;;;2.80;99.90;;;;;;5060471;28;20222;-86
2021/01/03 08:38:06;;;;;;;17.30;11.55;;;3.10;99.90;;;;;;5060220;28;20206;-85
2021/01/03 08:40:35;;;;;;;17.88;11.60;;;3.10;99.90;;;;;;5073490;28;20206;-85
2021/01/03 08:43:06;;;;;;;17.48;10.90;;;3.10;99.90;;;;;;5057115;28;20744;-85
2021/01/03 08:45:36;;;;;;;17.75;10.48;;;3.20;99.90;;;;;;5060214;28;20324;-84
2021/01/03 08:48:05;;;;;;;17.23;9.40;;;3.50;99.90;;;;;;5046359;28;20203;-85
2021/01/03 08:50:33;;;;;;;16.15;11.13;;;3.30;99.90;;;;;;5037499;28;20238;-85
2021/01/03 08:53:03;;;;;;;18.25;11.38;;;3.50;99.90;;;;;;5063082;28;20209;-85
2021/01/03 08:55:33;;;;;;;16.23;10.55;;;3.20;99.90;;;;;;5088757;28;20230;-85
2021/01/03 08:58:02;;;;;;;18.60;11.32;;;3.20;99.90;;;;;;5082488;28;20195;-85
2021/01/03 09:00:33;;;;;;;16.88;10.70;;;3.50;99.90;;;;;;5067157;28;20620;-84
2021/01/03 09:03:02;;;;;;;16.02;10.43;;;3.20;99.90;;;;;;5059892;28;20207;-85
2021/01/03 09:05:31;;;;;;;17.83;10.60;;;3.50;99.90;;;;;;5069666;28;20230;-84
2021/01/03 09:07:59;;;;;;;17.30;11.40;;;3.60;99.90;;;;;;5070506;28;20213;-84
2021/01/03 09:10:30;;;;;;;14.30;9.60;;;3.50;99.90;;;;;;5065106;28;20202;-83
2021/01/03 09:13:08;;;;;;;17.42;10.18;;;3.70;99.90;;;;;;5080884;28;20480;-84
2021/01/03 09:15:39;;;;;;;15.30;10.32;;;3.60;99.90;;;;;;5063325;28;20222;-84
2021/01/03 09:18:15;;;;;;;19.63;12.63;;;3.70;99.90;;;;;;5060655;28;20206;-85
2021/01/03 09:20:45;;;;;;;18.38;11.10;;;3.30;99.90;;;;;;5066324;28;20261;-85
2021/01/03 09:23:14;;;;;;;17.40;11.15;;;3.70;99.90;;;;;;5082957;28;20236;-85
2021/01/03 09:25:42;;;;;;;18.00;12.50;;;3.60;99.90;;;;;;5062140;28;20235;-86
2021/01/03 09:28:12;;;;;;;17.35;10.63;;;3.40;99.90;;;;;;5076533;28;20232;-85
2021/01/03 09:30:40;;;;;;;18.27;11.13;;;3.40;99.90;;;;;;5064380;28;20190;-85
2021/01/03 09:33:15;;;;;;;16.98;10.63;;;3.60;99.90;;;;;;5091811;28;20273;-84
2021/01/03 09:36:05;;;;;;;18.85;10.82;;;3.60;99.90;;;;;;5077720;28;20235;-83
2021/01/03 09:39:05;;;;;;;16.60;10.68;;;3.60;99.90;;;;;;5073580;28;20209;-83
2021/01/03 09:41:45;;;;;;;16.27;9.65;;;3.60;99.90;;;;;;5051605;28;20203;-82
2021/01/03 09:44:24;;;;;;;13.68;9.15;;;4.00;99.90;;;;;;5061042;28;20261;-79
2021/01/03 09:46:57;;;;;;;15.20;10.10;;;3.90;99.90;;;;;;5064988;28;20199;-84
2021/01/03 09:49:28;;;;;;;15.23;10.63;;;3.50;99.90;;;;;;5058338;28;20203;-80
2021/01/03 09:52:04;;;;;;;16.42;10.00;;;3.50;99.90;;;;;;5052424;28;20198;-81
2021/01/03 09:54:38;;;;;;;15.60;9.68;;;3.70;99.90;;;;;;5045891;28;20218;-79
2021/01/03 09:57:04;;;;;;;12.18;9.90;;;3.90;99.90;;;;;;5057894;28;20650;-79
2021/01/03 09:59:32;;;;;;;14.38;9.98;;;3.90;99.90;;;;;;5055474;28;20824;-81
2021/01/03 10:02:16;;;;;;;16.85;10.80;;;3.90;99.90;;;;;;5058491;28;20207;-79
2021/01/03 10:04:44;;;;;;;14.07;9.43;;;3.90;99.90;;;;;;5056259;28;20261;-79
2021/01/03 10:07:12;;;;;;;17.48;10.88;;;4.30;99.90;;;;;;5052220;28;20198;-77
2021/01/03 10:09:39;;;;;;;15.20;11.13;;;3.90;99.90;;;;;;5064820;28;20590;-83
2021/01/03 10:12:22;;;;;;;18.13;11.23;;;3.80;99.90;;;;;;5053965;28;20256;-85
2021/01/03 10:15:12;;;;;;;17.92;10.00;;;3.90;99.90;;;;;;5059835;28;20708;-82
2021/01/03 10:17:41;;;;;;;19.00;11.57;;;4.00;99.90;;;;;;5062113;28;20206;-85
2021/01/03 10:20:34;;;;;;;14.20;11.10;;;4.30;99.90;;;;;;5055148;28;20202;-77
2021/01/03 10:23:03;;;;;;;16.13;11.20;;;4.30;99.90;;;;;;5059653;28;20195;-86
2021/01/03 10:25:30;;;;;;;14.23;9.50;;;4.40;99.90;;;;;;5058242;28;20599;-87
2021/01/03 10:28:20;;;;;;;14.35;9.60;;;4.40;99.90;;;;;;5060598;28;20664;-86
2021/01/03 10:30:51;;;;;;;15.77;9.38;;;4.40;99.90;;;;;;5052414;28;20696;-87
2021/01/03 10:33:20;;;;;;;12.35;9.13;;;4.80;99.90;;;;;;5058033;28;20445;-84
2021/01/03 10:35:46;;;;;;;13.68;10.00;;;4.80;99.90;;;;;;5058466;28;20238;-86
2021/01/03 10:38:13;;;;;;;14.90;9.27;;;4.60;99.90;;;;;;5063360;28;20248;-85
2021/01/03 10:40:39;;;;;;;14.48;9.65;;;4.60;99.90;;;;;;5066823;28;20197;-85
2021/01/03 10:43:06;;;;;;;17.42;9.38;;;4.50;99.90;;;;;;5083421;28;20218;-84
2021/01/03 10:45:33;;;;;;;13.32;8.57;;;4.40;99.90;;;;;;5070611;28;20222;-86
2021/01/03 10:48:01;;;;;;;11.20;9.13;;;4.30;99.90;;;;;;5080976;28;20205;-85
2021/01/03 10:50:27;;;;;;;15.55;9.88;;;4.10;99.90;;;;;;5079707;28;20204;-86
2021/01/03 10:52:56;;;;;;;16.05;10.70;;;4.40;99.90;;;;;;5084217;28;20240;-85
2021/01/03 10:55:24;;;;;;;16.50;10.65;;;4.20;99.90;;;;;;5081668;28;20221;-84
2021/01/03 10:57:50;;;;;;;17.10;10.65;;;4.10;99.90;;;;;;5062722;28;20202;-84
2021/01/03 11:00:18;;;;;;;14.85;10.30;;;4.00;99.90;;;;;;5061637;28;20225;-81
2021/01/03 11:02:45;;;;;;;14.48;10.20;;;3.80;99.90;;;;;;5074033;28;20213;-84
2021/01/03 11:05:13;;;;;;;15.13;9.40;;;4.20;99.90;;;;;;5083210;28;20645;-77
2021/01/03 11:07:40;;;;;;;14.23;10.38;;;4.10;99.90;;;;;;5073797;28;20217;-83
2021/01/03 11:10:09;;;;;;;14.50;10.30;;;4.10;99.90;;;;;;5067696;28;20191;-85
2021/01/03 11:12:36;;;;;;;19.02;11.10;;;4.20;99.90;;;;;;5054863;28;20221;-86
2021/01/03 11:15:03;;;;;;;15.18;10.48;;;4.00;99.90;;;;;;5077047;28;20218;-85
2021/01/03 11:17:29;;;;;;;16.92;11.32;;;4.00;99.90;;;;;;5065487;28;20339;-85
2021/01/03 11:19:56;;;;;;;15.75;11.15;;;3.70;99.90;;;;;;5065056;28;20218;-81
2021/01/03 11:22:23;;;;;;;16.77;11.45;;;3.70;99.90;;;;;;5064494;28;20206;-83
2021/01/03 11:24:50;;;;;;;16.75;10.90;;;3.70;99.90;;;;;;5065759;28;20281;-81
2021/01/03 11:27:19;;;;;;;15.18;10.85;;;3.80;99.90;;;;;;5064905;28;20206;-82
2021/01/03 11:29:45;;;;;;;14.10;10.05;;;3.60;99.90;;;;;;5062271;28;20226;-82
2021/01/03 11:32:14;;;;;;;16.52;11.07;;;3.70;99.90;;;;;;5057070;28;20194;-82
2021/01/03 11:34:41;;;;;;;15.45;10.65;;;3.60;99.90;;;;;;5061035;28;20226;-83
2021/01/03 11:37:10;;;;;;;18.75;11.43;;;3.60;99.90;;;;;;5079975;28;20228;-83
2021/01/03 11:39:38;;;;;;;19.60;10.98;;;3.70;99.90;;;;;;5074201;28;20213;-83
2021/01/03 11:42:08;;;;;;;16.45;10.43;;;3.50;99.90;;;;;;5083563;28;20271;-82
2021/01/03 11:44:35;;;;;;;17.95;11.60;;;4.00;99.90;;;;;;5067056;28;20257;-83
2021/01/03 11:47:05;;;;;;;17.88;11.02;;;4.30;99.90;;;;;;5056026;28;20270;-78
2021/01/03 11:49:32;;;;;;;19.48;12.43;;;3.90;99.90;;;;;;5062085;28;20251;-77
2021/01/03 11:51:59;;;;;;;16.13;10.88;;;4.40;99.90;;;;;;5066657;28;20210;-80
2021/01/03 11:54:26;;;;;;;19.95;12.50;;;4.10;99.90;;;;;;5067701;28;20226;-85
2021/01/03 11:56:55;;;;;;;19.40;13.38;;;3.80;99.90;;;;;;5069044;28;20207;-84
2021/01/03 11:59:22;;;;;;;20.50;12.63;;;3.90;99.90;;;;;;5062621;28;20203;-84
2021/01/03 12:01:49;;;;;;;18.52;12.10;;;3.80;99.90;;;;;;5054518;28;20216;-83
2021/01/03 12:04:16;;;;;;;21.02;12.20;;;3.70;99.90;;;;;;5062991;28;20330;-83
2021/01/03 12:06:42;;;;;;;16.48;11.52;;;3.90;99.90;;;;;;5076889;28;20222;-82
2021/01/03 12:09:09;;;;;;;17.42;12.35;;;3.90;99.90;;;;;;5091403;28;20274;-82
2021/01/03 12:11:35;;;;;;;19.38;13.30;;;4.00;99.90;;;;;;5092749;28;20198;-82
2021/01/03 12:14:04;;;;;;;21.05;13.10;;;3.80;99.90;;;;;;5066993;28;20245;-83
2021/01/03 12:16:31;;;;;;;18.55;12.95;;;4.10;99.90;;;;;;5060476;28;20260;-83
2021/01/03 12:18:58;;;;;;;20.65;12.25;;;4.10;99.90;;;;;;5076765;28;20295;-84
2021/01/03 12:21:27;;;;;;;21.13;12.88;;;4.00;99.90;;;;;;5051065;28;20212;-83
2021/01/03 12:23:54;;;;;;;19.63;11.10;;;4.10;99.90;;;;;;5076469;28;20217;-83
2021/01/03 12:26:21;;;;;;;19.65;13.00;;;4.20;99.90;;;;;;5061146;28;20210;-82
2021/01/03 12:28:48;;;;;;;19.73;12.05;;;4.30;99.90;;;;;;5046593;28;20610;-83
2021/01/03 12:31:16;;;;;;;17.52;11.57;;;4.00;99.90;;;;;;5057543;28;20209;-83
2021/01/03 12:33:43;;;;;;;18.80;11.98;;;4.20;99.90;;;;;;5076067;28;20210;-82
2021/01/03 12:36:11;;;;;;;19.00;12.80;;;4.10;99.90;;;;;;5061794;28;20207;-84
2021/01/03 12:38:37;;;;;;;19.90;12.23;;;3.90;99.90;;;;;;5037072;28;20215;-83
2021/01/03 12:41:04;;;;;;;19.48;12.80;;;4.30;99.90;;;;;;5061423;28;20302;-82
2021/01/03 12:43:31;;;;;;;18.13;11.85;;;4.00;99.90;;;;;;5076493;28;20205;-82
2021/01/03 12:45:58;;;;;;;18.52;11.57;;;4.30;99.90;;;;;;5079034;28;20229;-82
2021/01/03 12:48:25;;;;;;;19.52;12.65;;;4.40;99.90;;;;;;5037963;28;20219;-83
2021/01/03 12:50:51;;;;;;;18.40;11.00;;;4.70;99.90;;;;;;5038292;28;20221;-83
2021/01/03 12:53:18;;;;;;;19.48;12.10;;;4.50;99.90;;;;;;5063118;28;20330;-80
2021/01/03 12:55:44;;;;;;;20.50;13.18;;;4.60;99.90;;;;;;5034983;28;20250;-80
2021/01/03 12:58:11;;;;;;;18.35;11.70;;;4.60;99.90;;;;;;5074392;28;20201;-82
2021/01/03 13:00:38;;;;;;;18.15;12.63;;;4.70;99.90;;;;;;5075664;28;20284;-81